GBD weather

Great Bend Municipal Airport
Great Bend, Kansas, United States

Public forecast

Using degrees Fahrenheit for public forecast. Weather courtesy of forecast.io.

Current aviation weather report (METAR) for Great Bend Municipal Airport

Retrieved 2019/10/22 06:56 UTC (13 minutes ago):

KGBD 220656Z AUTO 28009KT 10SM CLR 02/M06 A3008 RMK AO2 SLP189 T00221056 FZRANO

Aviation forecast (TAF) for Great Bend Municipal Airport

Retrieved 2019/10/22 06:22 UTC (47 minutes ago):

TAF KGBD 220520Z 2206/2306 28008KT P6SM SKC FM221700 29017G26KT P6SM SKC FM230000 24006KT P6SM SKC